sensor_id;sensor_type;location;lat;lon;timestamp;P1;durP1;ratioP1;P2;durP2;ratioP2
12554;SDS011;6343;50.868;4.700;2024-02-14T00:02:24;4.70;;;2.10;;
12554;SDS011;6343;50.868;4.700;2024-02-14T00:04:53;4.37;;;2.60;;
12554;SDS011;6343;50.868;4.700;2024-02-14T00:07:19;2.43;;;1.70;;
12554;SDS011;6343;50.868;4.700;2024-02-14T00:09:46;3.67;;;2.00;;
12554;SDS011;6343;50.868;4.700;2024-02-14T00:12:12;4.60;;;1.83;;
12554;SDS011;6343;50.868;4.700;2024-02-14T00:14:38;4.93;;;2.27;;
12554;SDS011;6343;50.868;4.700;2024-02-14T00:17:04;2.40;;;2.13;;
12554;SDS011;6343;50.868;4.700;2024-02-14T00:19:32;3.00;;;1.97;;
12554;SDS011;6343;50.868;4.700;2024-02-14T00:21:58;3.50;;;1.83;;
12554;SDS011;6343;50.868;4.700;2024-02-14T00:24:25;2.43;;;1.87;;
12554;SDS011;6343;50.868;4.700;2024-02-14T00:26:53;3.77;;;2.00;;
12554;SDS011;6343;50.868;4.700;2024-02-14T00:29:19;2.93;;;1.87;;
12554;SDS011;6343;50.868;4.700;2024-02-14T00:31:46;2.40;;;1.77;;
12554;SDS011;6343;50.868;4.700;2024-02-14T00:34:12;2.63;;;1.80;;
12554;SDS011;6343;50.868;4.700;2024-02-14T00:36:38;3.90;;;1.80;;
12554;SDS011;6343;50.868;4.700;2024-02-14T00:39:06;2.20;;;1.70;;
12554;SDS011;6343;50.868;4.700;2024-02-14T00:41:34;2.33;;;1.63;;
12554;SDS011;6343;50.868;4.700;2024-02-14T00:44:01;3.40;;;1.70;;
12554;SDS011;6343;50.868;4.700;2024-02-14T00:46:28;3.90;;;1.90;;
12554;SDS011;6343;50.868;4.700;2024-02-14T00:48:54;3.30;;;2.20;;
12554;SDS011;6343;50.868;4.700;2024-02-14T00:51:21;2.00;;;1.63;;
12554;SDS011;6343;50.868;4.700;2024-02-14T00:53:47;5.87;;;1.90;;
12554;SDS011;6343;50.868;4.700;2024-02-14T00:56:13;2.23;;;1.83;;
12554;SDS011;6343;50.868;4.700;2024-02-14T00:58:39;4.73;;;2.00;;
12554;SDS011;6343;50.868;4.700;2024-02-14T01:01:06;4.23;;;1.70;;
12554;SDS011;6343;50.868;4.700;2024-02-14T01:03:32;4.67;;;1.90;;
12554;SDS011;6343;50.868;4.700;2024-02-14T01:05:58;3.47;;;1.93;;
12554;SDS011;6343;50.868;4.700;2024-02-14T01:08:24;3.97;;;1.90;;
12554;SDS011;6343;50.868;4.700;2024-02-14T01:10:50;3.27;;;2.30;;
12554;SDS011;6343;50.868;4.700;2024-02-14T01:13:19;2.73;;;1.80;;
12554;SDS011;6343;50.868;4.700;2024-02-14T01:15:45;3.60;;;2.20;;
12554;SDS011;6343;50.868;4.700;2024-02-14T01:18:11;4.53;;;1.93;;
12554;SDS011;6343;50.868;4.700;2024-02-14T01:20:38;2.67;;;2.00;;
12554;SDS011;6343;50.868;4.700;2024-02-14T01:23:04;5.00;;;1.90;;
12554;SDS011;6343;50.868;4.700;2024-02-14T01:25:30;4.37;;;2.30;;
12554;SDS011;6343;50.868;4.700;2024-02-14T01:27:56;2.57;;;1.90;;
12554;SDS011;6343;50.868;4.700;2024-02-14T01:30:22;4.40;;;2.30;;
12554;SDS011;6343;50.868;4.700;2024-02-14T01:32:50;3.40;;;2.37;;
12554;SDS011;6343;50.868;4.700;2024-02-14T01:35:18;4.07;;;2.40;;
12554;SDS011;6343;50.868;4.700;2024-02-14T01:37:44;6.47;;;2.60;;
12554;SDS011;6343;50.868;4.700;2024-02-14T01:40:11;4.40;;;2.40;;
12554;SDS011;6343;50.868;4.700;2024-02-14T01:42:37;4.07;;;2.13;;
12554;SDS011;6343;50.868;4.700;2024-02-14T01:45:03;2.23;;;2.03;;
12554;SDS011;6343;50.868;4.700;2024-02-14T01:47:29;3.47;;;2.30;;
12554;SDS011;6343;50.868;4.700;2024-02-14T01:49:57;5.50;;;2.27;;
12554;SDS011;6343;50.868;4.700;2024-02-14T01:52:24;4.37;;;2.40;;
12554;SDS011;6343;50.868;4.700;2024-02-14T01:54:50;6.20;;;2.70;;
12554;SDS011;6343;50.868;4.700;2024-02-14T01:57:17;3.97;;;2.20;;
12554;SDS011;6343;50.868;4.700;2024-02-14T01:59:43;2.97;;;2.20;;
12554;SDS011;6343;50.868;4.700;2024-02-14T02:02:10;3.10;;;2.30;;
12554;SDS011;6343;50.868;4.700;2024-02-14T02:04:36;3.80;;;2.20;;
12554;SDS011;6343;50.868;4.700;2024-02-14T02:07:04;4.10;;;2.50;;
12554;SDS011;6343;50.868;4.700;2024-02-14T02:09:30;3.80;;;2.37;;
12554;SDS011;6343;50.868;4.700;2024-02-14T02:11:58;4.23;;;2.73;;
12554;SDS011;6343;50.868;4.700;2024-02-14T02:14:25;3.27;;;2.40;;
12554;SDS011;6343;50.868;4.700;2024-02-14T02:16:51;4.23;;;2.50;;
12554;SDS011;6343;50.868;4.700;2024-02-14T02:19:18;2.23;;;1.87;;
12554;SDS011;6343;50.868;4.700;2024-02-14T02:21:44;5.73;;;2.30;;
12554;SDS011;6343;50.868;4.700;2024-02-14T02:24:13;4.17;;;2.30;;
12554;SDS011;6343;50.868;4.700;2024-02-14T02:26:39;4.20;;;2.43;;
12554;SDS011;6343;50.868;4.700;2024-02-14T02:29:05;5.37;;;3.73;;
12554;SDS011;6343;50.868;4.700;2024-02-14T02:31:31;5.70;;;2.83;;
12554;SDS011;6343;50.868;4.700;2024-02-14T02:33:58;3.30;;;2.60;;
12554;SDS011;6343;50.868;4.700;2024-02-14T02:36:24;2.70;;;2.30;;
12554;SDS011;6343;50.868;4.700;2024-02-14T02:38:53;2.27;;;2.00;;
12554;SDS011;6343;50.868;4.700;2024-02-14T02:41:19;5.53;;;2.70;;
12554;SDS011;6343;50.868;4.700;2024-02-14T02:43:45;3.57;;;2.60;;
12554;SDS011;6343;50.868;4.700;2024-02-14T02:46:15;3.77;;;2.23;;
12554;SDS011;6343;50.868;4.700;2024-02-14T02:48:41;4.80;;;2.20;;
12554;SDS011;6343;50.868;4.700;2024-02-14T02:51:07;4.07;;;2.37;;
12554;SDS011;6343;50.868;4.700;2024-02-14T02:53:33;3.77;;;2.03;;
12554;SDS011;6343;50.868;4.700;2024-02-14T02:56:00;7.57;;;2.53;;
12554;SDS011;6343;50.868;4.700;2024-02-14T02:58:26;4.23;;;2.60;;
12554;SDS011;6343;50.868;4.700;2024-02-14T03:00:52;3.83;;;2.30;;
12554;SDS011;6343;50.868;4.700;2024-02-14T03:03:20;3.23;;;2.40;;
12554;SDS011;6343;50.868;4.700;2024-02-14T03:05:47;3.20;;;2.10;;
12554;SDS011;6343;50.868;4.700;2024-02-14T03:08:14;4.53;;;2.70;;
12554;SDS011;6343;50.868;4.700;2024-02-14T03:10:40;3.03;;;2.73;;
12554;SDS011;6343;50.868;4.700;2024-02-14T03:13:07;4.10;;;2.37;;
12554;SDS011;6343;50.868;4.700;2024-02-14T03:15:42;5.37;;;2.77;;
12554;SDS011;6343;50.868;4.700;2024-02-14T03:18:09;4.00;;;2.23;;
12554;SDS011;6343;50.868;4.700;2024-02-14T03:20:35;3.47;;;3.03;;
12554;SDS011;6343;50.868;4.700;2024-02-14T03:23:02;6.40;;;2.80;;
12554;SDS011;6343;50.868;4.700;2024-02-14T03:25:31;3.27;;;2.77;;
12554;SDS011;6343;50.868;4.700;2024-02-14T03:27:57;5.43;;;2.70;;
12554;SDS011;6343;50.868;4.700;2024-02-14T03:30:23;4.10;;;2.73;;
12554;SDS011;6343;50.868;4.700;2024-02-14T03:32:50;3.37;;;2.67;;
12554;SDS011;6343;50.868;4.700;2024-02-14T03:35:17;4.13;;;3.00;;
12554;SDS011;6343;50.868;4.700;2024-02-14T03:37:45;4.17;;;2.53;;
12554;SDS011;6343;50.868;4.700;2024-02-14T03:40:17;3.43;;;2.83;;
12554;SDS011;6343;50.868;4.700;2024-02-14T03:42:45;4.47;;;3.00;;
12554;SDS011;6343;50.868;4.700;2024-02-14T03:45:11;5.50;;;2.90;;
12554;SDS011;6343;50.868;4.700;2024-02-14T03:47:37;5.53;;;2.90;;
12554;SDS011;6343;50.868;4.700;2024-02-14T03:50:04;5.47;;;2.97;;
12554;SDS011;6343;50.868;4.700;2024-02-14T03:52:32;5.23;;;2.80;;
12554;SDS011;6343;50.868;4.700;2024-02-14T03:54:58;5.60;;;3.10;;
12554;SDS011;6343;50.868;4.700;2024-02-14T03:57:25;7.27;;;3.20;;
12554;SDS011;6343;50.868;4.700;2024-02-14T03:59:53;5.50;;;2.97;;
12554;SDS011;6343;50.868;4.700;2024-02-14T04:02:21;4.77;;;3.47;;
12554;SDS011;6343;50.868;4.700;2024-02-14T04:04:48;6.23;;;3.20;;
12554;SDS011;6343;50.868;4.700;2024-02-14T04:07:14;7.17;;;2.77;;
12554;SDS011;6343;50.868;4.700;2024-02-14T04:09:41;5.40;;;3.13;;
12554;SDS011;6343;50.868;4.700;2024-02-14T04:12:07;3.87;;;3.27;;
12554;SDS011;6343;50.868;4.700;2024-02-14T04:14:35;6.10;;;3.03;;
12554;SDS011;6343;50.868;4.700;2024-02-14T04:17:02;7.10;;;3.50;;
12554;SDS011;6343;50.868;4.700;2024-02-14T04:19:28;4.37;;;3.20;;
12554;SDS011;6343;50.868;4.700;2024-02-14T04:21:54;7.80;;;3.30;;
12554;SDS011;6343;50.868;4.700;2024-02-14T04:24:20;6.60;;;3.87;;
12554;SDS011;6343;50.868;4.700;2024-02-14T04:26:46;6.30;;;3.37;;
12554;SDS011;6343;50.868;4.700;2024-02-14T04:29:14;7.43;;;3.40;;
12554;SDS011;6343;50.868;4.700;2024-02-14T04:31:40;5.87;;;3.33;;
12554;SDS011;6343;50.868;4.700;2024-02-14T04:34:08;5.37;;;3.33;;
12554;SDS011;6343;50.868;4.700;2024-02-14T04:36:35;7.27;;;3.87;;
12554;SDS011;6343;50.868;4.700;2024-02-14T04:39:01;8.43;;;3.50;;
12554;SDS011;6343;50.868;4.700;2024-02-14T04:41:28;5.40;;;3.40;;
12554;SDS011;6343;50.868;4.700;2024-02-14T04:43:54;5.57;;;3.20;;
12554;SDS011;6343;50.868;4.700;2024-02-14T04:46:20;3.37;;;3.00;;
12554;SDS011;6343;50.868;4.700;2024-02-14T04:48:47;5.63;;;3.40;;
12554;SDS011;6343;50.868;4.700;2024-02-14T04:51:13;4.90;;;3.60;;
12554;SDS011;6343;50.868;4.700;2024-02-14T04:53:39;4.23;;;3.27;;
12554;SDS011;6343;50.868;4.700;2024-02-14T04:56:05;3.70;;;3.23;;
12554;SDS011;6343;50.868;4.700;2024-02-14T04:58:32;5.53;;;3.43;;
12554;SDS011;6343;50.868;4.700;2024-02-14T05:00:58;5.27;;;3.37;;
12554;SDS011;6343;50.868;4.700;2024-02-14T05:03:24;5.00;;;3.37;;
12554;SDS011;6343;50.868;4.700;2024-02-14T05:05:51;4.13;;;3.27;;
12554;SDS011;6343;50.868;4.700;2024-02-14T05:08:17;4.63;;;3.30;;
12554;SDS011;6343;50.868;4.700;2024-02-14T05:10:43;5.83;;;3.47;;
12554;SDS011;6343;50.868;4.700;2024-02-14T05:13:10;6.07;;;3.50;;
12554;SDS011;6343;50.868;4.700;2024-02-14T05:15:36;4.47;;;3.23;;
12554;SDS011;6343;50.868;4.700;2024-02-14T05:18:03;5.73;;;3.60;;
12554;SDS011;6343;50.868;4.700;2024-02-14T05:20:30;5.03;;;3.80;;
12554;SDS011;6343;50.868;4.700;2024-02-14T05:22:56;6.10;;;3.83;;
12554;SDS011;6343;50.868;4.700;2024-02-14T05:25:23;6.63;;;3.70;;
12554;SDS011;6343;50.868;4.700;2024-02-14T05:27:49;5.20;;;3.40;;
12554;SDS011;6343;50.868;4.700;2024-02-14T05:30:15;7.27;;;4.37;;
12554;SDS011;6343;50.868;4.700;2024-02-14T05:32:41;6.47;;;3.90;;
12554;SDS011;6343;50.868;4.700;2024-02-14T05:35:07;5.43;;;3.77;;
12554;SDS011;6343;50.868;4.700;2024-02-14T05:37:34;6.37;;;4.13;;
12554;SDS011;6343;50.868;4.700;2024-02-14T05:40:02;6.13;;;3.73;;
12554;SDS011;6343;50.868;4.700;2024-02-14T05:42:31;6.87;;;3.97;;
12554;SDS011;6343;50.868;4.700;2024-02-14T05:44:59;6.07;;;3.80;;
12554;SDS011;6343;50.868;4.700;2024-02-14T05:47:26;6.60;;;4.10;;
12554;SDS011;6343;50.868;4.700;2024-02-14T05:49:52;5.00;;;3.77;;
12554;SDS011;6343;50.868;4.700;2024-02-14T05:52:18;9.53;;;4.40;;
12554;SDS011;6343;50.868;4.700;2024-02-14T05:54:45;5.90;;;3.70;;
12554;SDS011;6343;50.868;4.700;2024-02-14T05:57:11;7.97;;;4.07;;
12554;SDS011;6343;50.868;4.700;2024-02-14T05:59:37;6.17;;;4.30;;
12554;SDS011;6343;50.868;4.700;2024-02-14T06:02:03;7.53;;;4.30;;
12554;SDS011;6343;50.868;4.700;2024-02-14T06:04:31;5.13;;;3.93;;
12554;SDS011;6343;50.868;4.700;2024-02-14T06:06:57;7.80;;;4.17;;
12554;SDS011;6343;50.868;4.700;2024-02-14T06:09:23;7.53;;;3.67;;
12554;SDS011;6343;50.868;4.700;2024-02-14T06:11:49;8.83;;;4.90;;
12554;SDS011;6343;50.868;4.700;2024-02-14T06:14:15;5.13;;;3.47;;
12554;SDS011;6343;50.868;4.700;2024-02-14T06:16:42;7.00;;;3.97;;
12554;SDS011;6343;50.868;4.700;2024-02-14T06:19:09;4.47;;;3.67;;
12554;SDS011;6343;50.868;4.700;2024-02-14T06:21:36;6.13;;;3.90;;
12554;SDS011;6343;50.868;4.700;2024-02-14T06:24:03;7.57;;;4.07;;
12554;SDS011;6343;50.868;4.700;2024-02-14T06:26:30;5.53;;;3.93;;
12554;SDS011;6343;50.868;4.700;2024-02-14T06:28:56;8.03;;;3.70;;
12554;SDS011;6343;50.868;4.700;2024-02-14T06:31:23;5.73;;;3.67;;
12554;SDS011;6343;50.868;4.700;2024-02-14T06:33:49;6.40;;;3.77;;
12554;SDS011;6343;50.868;4.700;2024-02-14T06:36:15;7.90;;;4.33;;
12554;SDS011;6343;50.868;4.700;2024-02-14T06:38:41;6.27;;;3.83;;
12554;SDS011;6343;50.868;4.700;2024-02-14T06:41:08;5.47;;;3.83;;
12554;SDS011;6343;50.868;4.700;2024-02-14T06:43:34;4.60;;;3.73;;
12554;SDS011;6343;50.868;4.700;2024-02-14T06:46:03;7.20;;;3.70;;
12554;SDS011;6343;50.868;4.700;2024-02-14T06:48:29;6.77;;;3.70;;
12554;SDS011;6343;50.868;4.700;2024-02-14T06:50:55;5.60;;;3.97;;
12554;SDS011;6343;50.868;4.700;2024-02-14T06:53:21;7.40;;;3.60;;
12554;SDS011;6343;50.868;4.700;2024-02-14T06:55:48;5.57;;;3.90;;
12554;SDS011;6343;50.868;4.700;2024-02-14T06:58:14;6.33;;;3.90;;
12554;SDS011;6343;50.868;4.700;2024-02-14T07:00:40;8.20;;;4.20;;
12554;SDS011;6343;50.868;4.700;2024-02-14T07:03:06;5.77;;;4.00;;
12554;SDS011;6343;50.868;4.700;2024-02-14T07:05:34;6.23;;;3.70;;
12554;SDS011;6343;50.868;4.700;2024-02-14T07:08:01;6.77;;;3.73;;
12554;SDS011;6343;50.868;4.700;2024-02-14T07:10:27;6.13;;;3.87;;
12554;SDS011;6343;50.868;4.700;2024-02-14T07:12:53;7.50;;;3.83;;
12554;SDS011;6343;50.868;4.700;2024-02-14T07:15:19;7.23;;;3.77;;
12554;SDS011;6343;50.868;4.700;2024-02-14T07:17:45;7.03;;;4.33;;
12554;SDS011;6343;50.868;4.700;2024-02-14T07:20:11;9.40;;;4.10;;
12554;SDS011;6343;50.868;4.700;2024-02-14T07:22:38;9.03;;;3.70;;
12554;SDS011;6343;50.868;4.700;2024-02-14T07:25:04;6.17;;;3.50;;
12554;SDS011;6343;50.868;4.700;2024-02-14T07:27:33;6.83;;;3.80;;
12554;SDS011;6343;50.868;4.700;2024-02-14T07:29:59;6.00;;;3.97;;
12554;SDS011;6343;50.868;4.700;2024-02-14T07:32:25;9.60;;;4.03;;
12554;SDS011;6343;50.868;4.700;2024-02-14T07:34:52;7.83;;;4.50;;
12554;SDS011;6343;50.868;4.700;2024-02-14T07:37:18;7.90;;;4.17;;
12554;SDS011;6343;50.868;4.700;2024-02-14T07:39:45;7.03;;;3.57;;
12554;SDS011;6343;50.868;4.700;2024-02-14T07:42:12;9.23;;;3.87;;
12554;SDS011;6343;50.868;4.700;2024-02-14T07:44:39;8.57;;;3.83;;
12554;SDS011;6343;50.868;4.700;2024-02-14T07:47:05;9.90;;;3.83;;
12554;SDS011;6343;50.868;4.700;2024-02-14T07:49:31;6.10;;;3.60;;
12554;SDS011;6343;50.868;4.700;2024-02-14T07:51:57;6.50;;;3.50;;
12554;SDS011;6343;50.868;4.700;2024-02-14T07:54:23;5.77;;;3.27;;
12554;SDS011;6343;50.868;4.700;2024-02-14T07:56:49;9.67;;;4.07;;
12554;SDS011;6343;50.868;4.700;2024-02-14T07:59:15;8.30;;;3.63;;
12554;SDS011;6343;50.868;4.700;2024-02-14T08:01:41;5.57;;;3.80;;
12554;SDS011;6343;50.868;4.700;2024-02-14T08:04:08;8.27;;;3.87;;
12554;SDS011;6343;50.868;4.700;2024-02-14T08:06:34;8.20;;;4.40;;
12554;SDS011;6343;50.868;4.700;2024-02-14T08:09:01;8.27;;;4.07;;
12554;SDS011;6343;50.868;4.700;2024-02-14T08:11:31;6.97;;;3.87;;
12554;SDS011;6343;50.868;4.700;2024-02-14T08:13:57;6.20;;;3.70;;
12554;SDS011;6343;50.868;4.700;2024-02-14T08:16:24;5.17;;;4.03;;
12554;SDS011;6343;50.868;4.700;2024-02-14T08:18:51;7.67;;;3.70;;
12554;SDS011;6343;50.868;4.700;2024-02-14T08:21:23;6.23;;;3.87;;
12554;SDS011;6343;50.868;4.700;2024-02-14T08:23:50;9.17;;;3.97;;
12554;SDS011;6343;50.868;4.700;2024-02-14T08:26:16;7.00;;;4.03;;
12554;SDS011;6343;50.868;4.700;2024-02-14T08:28:42;7.60;;;4.27;;
12554;SDS011;6343;50.868;4.700;2024-02-14T08:31:11;13.30;;;4.70;;
12554;SDS011;6343;50.868;4.700;2024-02-14T08:33:38;8.00;;;3.90;;
12554;SDS011;6343;50.868;4.700;2024-02-14T08:36:04;11.67;;;4.50;;
12554;SDS011;6343;50.868;4.700;2024-02-14T08:38:30;8.83;;;4.60;;
12554;SDS011;6343;50.868;4.700;2024-02-14T08:40:57;8.03;;;4.23;;
12554;SDS011;6343;50.868;4.700;2024-02-14T08:43:23;6.10;;;3.60;;
12554;SDS011;6343;50.868;4.700;2024-02-14T08:45:53;5.70;;;3.83;;
12554;SDS011;6343;50.868;4.700;2024-02-14T08:48:20;7.13;;;4.57;;
12554;SDS011;6343;50.868;4.700;2024-02-14T08:50:46;6.83;;;4.47;;
12554;SDS011;6343;50.868;4.700;2024-02-14T08:53:13;6.90;;;4.40;;
12554;SDS011;6343;50.868;4.700;2024-02-14T08:55:42;6.63;;;4.50;;
12554;SDS011;6343;50.868;4.700;2024-02-14T08:58:08;10.57;;;4.67;;
12554;SDS011;6343;50.868;4.700;2024-02-14T09:00:37;8.40;;;4.30;;
12554;SDS011;6343;50.868;4.700;2024-02-14T09:03:06;7.53;;;4.73;;
12554;SDS011;6343;50.868;4.700;2024-02-14T09:05:32;6.13;;;4.50;;
12554;SDS011;6343;50.868;4.700;2024-02-14T09:07:59;7.17;;;4.20;;
12554;SDS011;6343;50.868;4.700;2024-02-14T09:10:25;9.13;;;4.30;;
12554;SDS011;6343;50.868;4.700;2024-02-14T09:12:51;6.57;;;4.27;;
12554;SDS011;6343;50.868;4.700;2024-02-14T09:15:18;6.00;;;4.33;;
12554;SDS011;6343;50.868;4.700;2024-02-14T09:17:44;6.27;;;4.47;;
12554;SDS011;6343;50.868;4.700;2024-02-14T09:20:11;9.13;;;5.47;;
12554;SDS011;6343;50.868;4.700;2024-02-14T09:22:39;8.10;;;5.00;;
12554;SDS011;6343;50.868;4.700;2024-02-14T09:25:07;7.77;;;4.67;;
12554;SDS011;6343;50.868;4.700;2024-02-14T09:27:35;7.93;;;4.83;;
12554;SDS011;6343;50.868;4.700;2024-02-14T09:30:02;10.37;;;6.07;;
12554;SDS011;6343;50.868;4.700;2024-02-14T09:32:29;7.00;;;4.57;;
12554;SDS011;6343;50.868;4.700;2024-02-14T09:34:55;6.63;;;4.90;;
12554;SDS011;6343;50.868;4.700;2024-02-14T09:37:22;8.00;;;5.07;;
12554;SDS011;6343;50.868;4.700;2024-02-14T09:39:48;8.63;;;5.67;;
12554;SDS011;6343;50.868;4.700;2024-02-14T09:42:16;14.43;;;5.87;;
12554;SDS011;6343;50.868;4.700;2024-02-14T09:44:42;7.03;;;5.17;;
12554;SDS011;6343;50.868;4.700;2024-02-14T09:47:09;8.37;;;5.50;;
12554;SDS011;6343;50.868;4.700;2024-02-14T09:49:35;9.70;;;5.47;;
12554;SDS011;6343;50.868;4.700;2024-02-14T09:52:42;7.93;;;5.33;;
12554;SDS011;6343;50.868;4.700;2024-02-14T09:55:09;9.00;;;4.97;;
12554;SDS011;6343;50.868;4.700;2024-02-14T09:57:35;7.87;;;5.10;;
12554;SDS011;6343;50.868;4.700;2024-02-14T10:00:02;7.87;;;4.63;;
12554;SDS011;6343;50.868;4.700;2024-02-14T10:02:31;9.07;;;5.20;;
12554;SDS011;6343;50.868;4.700;2024-02-14T10:04:57;9.40;;;4.67;;
12554;SDS011;6343;50.868;4.700;2024-02-14T10:07:23;9.00;;;4.47;;
12554;SDS011;6343;50.868;4.700;2024-02-14T10:09:49;11.67;;;4.00;;
12554;SDS011;6343;50.868;4.700;2024-02-14T10:12:15;4.83;;;3.90;;
12554;SDS011;6343;50.868;4.700;2024-02-14T10:14:43;6.43;;;3.90;;
12554;SDS011;6343;50.868;4.700;2024-02-14T10:17:16;5.53;;;3.80;;
12554;SDS011;6343;50.868;4.700;2024-02-14T10:19:43;5.80;;;3.50;;
12554;SDS011;6343;50.868;4.700;2024-02-14T10:22:09;4.13;;;3.20;;
12554;SDS011;6343;50.868;4.700;2024-02-14T10:24:35;6.80;;;3.30;;
12554;SDS011;6343;50.868;4.700;2024-02-14T10:27:01;5.47;;;3.03;;
12554;SDS011;6343;50.868;4.700;2024-02-14T10:29:27;4.50;;;3.27;;
12554;SDS011;6343;50.868;4.700;2024-02-14T10:31:54;5.13;;;3.03;;
12554;SDS011;6343;50.868;4.700;2024-02-14T10:34:25;5.03;;;2.83;;
12554;SDS011;6343;50.868;4.700;2024-02-14T10:36:53;4.80;;;2.57;;
12554;SDS011;6343;50.868;4.700;2024-02-14T10:39:19;3.03;;;2.67;;
12554;SDS011;6343;50.868;4.700;2024-02-14T10:41:46;5.47;;;2.80;;
12554;SDS011;6343;50.868;4.700;2024-02-14T10:44:12;4.47;;;2.67;;
12554;SDS011;6343;50.868;4.700;2024-02-14T10:46:39;4.77;;;2.50;;
12554;SDS011;6343;50.868;4.700;2024-02-14T10:49:05;4.17;;;2.60;;
12554;SDS011;6343;50.868;4.700;2024-02-14T10:51:33;3.10;;;2.57;;
12554;SDS011;6343;50.868;4.700;2024-02-14T10:54:04;3.47;;;2.60;;
12554;SDS011;6343;50.868;4.700;2024-02-14T10:56:31;3.10;;;2.20;;
12554;SDS011;6343;50.868;4.700;2024-02-14T10:58:58;4.40;;;2.60;;
12554;SDS011;6343;50.868;4.700;2024-02-14T11:01:24;3.27;;;2.10;;
12554;SDS011;6343;50.868;4.700;2024-02-14T11:03:52;4.50;;;2.13;;
12554;SDS011;6343;50.868;4.700;2024-02-14T11:06:18;2.63;;;2.03;;
12554;SDS011;6343;50.868;4.700;2024-02-14T11:11:42;3.00;;;2.20;;
12554;SDS011;6343;50.868;4.700;2024-02-14T11:14:09;3.03;;;2.03;;
12554;SDS011;6343;50.868;4.700;2024-02-14T11:16:36;2.57;;;1.93;;
12554;SDS011;6343;50.868;4.700;2024-02-14T11:19:06;3.63;;;2.30;;
12554;SDS011;6343;50.868;4.700;2024-02-14T11:21:52;2.40;;;1.40;;
12554;SDS011;6343;50.868;4.700;2024-02-14T11:24:18;2.10;;;1.70;;
12554;SDS011;6343;50.868;4.700;2024-02-14T11:29:13;2.83;;;1.77;;
12554;SDS011;6343;50.868;4.700;2024-02-14T11:31:41;1.57;;;1.40;;
12554;SDS011;6343;50.868;4.700;2024-02-14T11:34:08;2.67;;;1.50;;
12554;SDS011;6343;50.868;4.700;2024-02-14T11:36:35;2.73;;;1.50;;
12554;SDS011;6343;50.868;4.700;2024-02-14T11:39:05;1.40;;;1.30;;
12554;SDS011;6343;50.868;4.700;2024-02-14T11:41:34;2.83;;;1.57;;
12554;SDS011;6343;50.868;4.700;2024-02-14T11:44:00;1.50;;;1.40;;
12554;SDS011;6343;50.868;4.700;2024-02-14T11:46:29;1.87;;;1.50;;
12554;SDS011;6343;50.868;4.700;2024-02-14T11:48:55;2.43;;;1.60;;
12554;SDS011;6343;50.868;4.700;2024-02-14T11:51:22;1.97;;;1.20;;
12554;SDS011;6343;50.868;4.700;2024-02-14T11:53:48;2.40;;;1.50;;
12554;SDS011;6343;50.868;4.700;2024-02-14T11:56:14;3.13;;;1.60;;
12554;SDS011;6343;50.868;4.700;2024-02-14T11:58:41;3.20;;;1.30;;
12554;SDS011;6343;50.868;4.700;2024-02-14T12:01:07;3.10;;;1.23;;
12554;SDS011;6343;50.868;4.700;2024-02-14T12:03:34;2.27;;;1.30;;
12554;SDS011;6343;50.868;4.700;2024-02-14T12:06:01;2.97;;;1.53;;
12554;SDS011;6343;50.868;4.700;2024-02-14T12:08:28;2.23;;;1.40;;
12554;SDS011;6343;50.868;4.700;2024-02-14T12:10:54;3.10;;;1.60;;
12554;SDS011;6343;50.868;4.700;2024-02-14T12:13:20;2.37;;;1.57;;
12554;SDS011;6343;50.868;4.700;2024-02-14T12:15:47;2.47;;;1.20;;
12554;SDS011;6343;50.868;4.700;2024-02-14T12:18:15;1.77;;;1.20;;
12554;SDS011;6343;50.868;4.700;2024-02-14T12:20:42;25.17;;;7.77;;
12554;SDS011;6343;50.868;4.700;2024-02-14T12:23:13;5.30;;;1.50;;
12554;SDS011;6343;50.868;4.700;2024-02-14T12:25:40;1.57;;;1.20;;
12554;SDS011;6343;50.868;4.700;2024-02-14T12:28:06;5.40;;;1.63;;
12554;SDS011;6343;50.868;4.700;2024-02-14T12:30:45;2.13;;;1.87;;
12554;SDS011;6343;50.868;4.700;2024-02-14T12:33:14;2.03;;;1.40;;
12554;SDS011;6343;50.868;4.700;2024-02-14T12:35:46;2.73;;;1.30;;
12554;SDS011;6343;50.868;4.700;2024-02-14T12:38:13;3.33;;;1.80;;
12554;SDS011;6343;50.868;4.700;2024-02-14T12:40:40;1.97;;;1.63;;
12554;SDS011;6343;50.868;4.700;2024-02-14T12:43:07;2.50;;;1.80;;
12554;SDS011;6343;50.868;4.700;2024-02-14T12:45:33;4.10;;;2.30;;
12554;SDS011;6343;50.868;4.700;2024-02-14T12:48:00;5.87;;;2.03;;
12554;SDS011;6343;50.868;4.700;2024-02-14T12:50:26;3.37;;;1.70;;
12554;SDS011;6343;50.868;4.700;2024-02-14T12:52:52;5.63;;;2.00;;
12554;SDS011;6343;50.868;4.700;2024-02-14T12:55:18;5.67;;;2.20;;
12554;SDS011;6343;50.868;4.700;2024-02-14T12:57:45;4.83;;;2.10;;
12554;SDS011;6343;50.868;4.700;2024-02-14T13:00:11;4.73;;;2.17;;
12554;SDS011;6343;50.868;4.700;2024-02-14T13:02:37;6.60;;;2.53;;
12554;SDS011;6343;50.868;4.700;2024-02-14T13:05:04;6.40;;;2.60;;
12554;SDS011;6343;50.868;4.700;2024-02-14T13:07:39;8.70;;;2.97;;
12554;SDS011;6343;50.868;4.700;2024-02-14T13:10:05;3.90;;;2.40;;
12554;SDS011;6343;50.868;4.700;2024-02-14T13:12:34;4.03;;;2.63;;
12554;SDS011;6343;50.868;4.700;2024-02-14T13:15:00;5.40;;;3.00;;
12554;SDS011;6343;50.868;4.700;2024-02-14T13:17:27;4.93;;;3.47;;
12554;SDS011;6343;50.868;4.700;2024-02-14T13:19:54;10.47;;;3.30;;
12554;SDS011;6343;50.868;4.700;2024-02-14T13:22:20;6.80;;;3.60;;
12554;SDS011;6343;50.868;4.700;2024-02-14T13:24:46;5.57;;;3.20;;
12554;SDS011;6343;50.868;4.700;2024-02-14T13:27:12;6.17;;;3.27;;
12554;SDS011;6343;50.868;4.700;2024-02-14T13:29:39;8.03;;;3.40;;
12554;SDS011;6343;50.868;4.700;2024-02-14T13:32:05;15.43;;;3.83;;
12554;SDS011;6343;50.868;4.700;2024-02-14T13:34:32;8.97;;;3.50;;
12554;SDS011;6343;50.868;4.700;2024-02-14T13:36:59;4.87;;;3.67;;
12554;SDS011;6343;50.868;4.700;2024-02-14T13:39:25;8.30;;;3.40;;
12554;SDS011;6343;50.868;4.700;2024-02-14T13:41:51;10.83;;;3.47;;
12554;SDS011;6343;50.868;4.700;2024-02-14T13:44:18;6.67;;;3.10;;
12554;SDS011;6343;50.868;4.700;2024-02-14T13:46:45;8.80;;;3.27;;
12554;SDS011;6343;50.868;4.700;2024-02-14T13:49:11;10.90;;;3.90;;
12554;SDS011;6343;50.868;4.700;2024-02-14T13:51:41;10.87;;;3.87;;
12554;SDS011;6343;50.868;4.700;2024-02-14T13:54:07;9.10;;;3.67;;
12554;SDS011;6343;50.868;4.700;2024-02-14T13:56:34;9.10;;;4.37;;
12554;SDS011;6343;50.868;4.700;2024-02-14T13:59:00;6.83;;;3.93;;
12554;SDS011;6343;50.868;4.700;2024-02-14T14:01:26;5.23;;;3.50;;
12554;SDS011;6343;50.868;4.700;2024-02-14T14:03:52;8.67;;;3.87;;
12554;SDS011;6343;50.868;4.700;2024-02-14T14:06:21;4.73;;;3.40;;
12554;SDS011;6343;50.868;4.700;2024-02-14T14:08:49;7.40;;;3.10;;
12554;SDS011;6343;50.868;4.700;2024-02-14T14:11:15;3.97;;;3.20;;
12554;SDS011;6343;50.868;4.700;2024-02-14T14:13:41;6.57;;;3.67;;
12554;SDS011;6343;50.868;4.700;2024-02-14T14:16:07;5.60;;;3.30;;
12554;SDS011;6343;50.868;4.700;2024-02-14T14:18:34;6.43;;;3.20;;
12554;SDS011;6343;50.868;4.700;2024-02-14T14:21:00;5.83;;;3.43;;
12554;SDS011;6343;50.868;4.700;2024-02-14T14:23:27;7.10;;;3.10;;
12554;SDS011;6343;50.868;4.700;2024-02-14T14:25:53;7.40;;;2.50;;
12554;SDS011;6343;50.868;4.700;2024-02-14T14:28:19;4.90;;;2.97;;
12554;SDS011;6343;50.868;4.700;2024-02-14T14:30:50;5.67;;;2.43;;
12554;SDS011;6343;50.868;4.700;2024-02-14T14:33:16;5.47;;;3.17;;
12554;SDS011;6343;50.868;4.700;2024-02-14T14:35:42;4.60;;;3.20;;
12554;SDS011;6343;50.868;4.700;2024-02-14T14:38:08;4.00;;;2.70;;
12554;SDS011;6343;50.868;4.700;2024-02-14T14:40:35;3.60;;;2.47;;
12554;SDS011;6343;50.868;4.700;2024-02-14T14:43:02;5.43;;;2.63;;
12554;SDS011;6343;50.868;4.700;2024-02-14T14:45:28;4.93;;;2.57;;
12554;SDS011;6343;50.868;4.700;2024-02-14T14:47:56;4.87;;;2.80;;
12554;SDS011;6343;50.868;4.700;2024-02-14T14:50:22;3.63;;;2.37;;
12554;SDS011;6343;50.868;4.700;2024-02-14T14:52:50;2.83;;;2.30;;
12554;SDS011;6343;50.868;4.700;2024-02-14T14:55:17;4.83;;;2.30;;
12554;SDS011;6343;50.868;4.700;2024-02-14T14:57:43;4.67;;;2.00;;
12554;SDS011;6343;50.868;4.700;2024-02-14T15:00:10;5.23;;;2.13;;
12554;SDS011;6343;50.868;4.700;2024-02-14T15:02:40;5.03;;;2.30;;
12554;SDS011;6343;50.868;4.700;2024-02-14T15:05:09;5.57;;;2.43;;